Time;durP1;ratioP1;P1;durP2;ratioP2;P2;SDS_P1;SDS_P2;PMS_P1;PMS_P2;Temp;Humidity;BMP_temperature;BMP_pressure;BME280_temperature;BME280_humidity;BME280_pressure;Samples;Min_cycle;Max_cycle;Signal;HPM_P1;HPM_P2
2021/12/13 00:02:02;;;;;;;28.60;14.23;;;;;;;9.15;100.00;102403.13;5094883;28;20370;-66
2021/12/13 00:04:33;;;;;;;29.30;14.52;;;;;;;9.22;100.00;102419.31;5094569;28;20066;-66
2021/12/13 00:07:03;;;;;;;30.38;15.48;;;;;;;9.22;100.00;102421.97;5094624;28;20020;-66
2021/12/13 00:09:31;;;;;;;30.35;14.57;;;;;;;9.19;100.00;102412.47;5094675;28;20077;-66
2021/12/13 00:12:01;;;;;;;28.60;14.68;;;;;;;9.20;100.00;102413.31;5094417;28;20485;-66
2021/12/13 00:14:33;;;;;;;28.10;15.60;;;;;;;9.21;100.00;102412.31;5094375;28;20028;-66
2021/12/13 00:17:23;;;;;;;31.30;17.77;;;;;;;9.21;100.00;102415.81;5094417;28;20031;-66
2021/12/13 00:19:51;;;;;;;30.00;16.13;;;;;;;9.21;100.00;102414.97;5094306;28;20020;-66
2021/12/13 00:22:21;;;;;;;28.15;14.45;;;;;;;9.20;100.00;102414.16;5094315;28;20031;-66
2021/12/13 00:24:49;;;;;;;26.50;14.25;;;;;;;9.20;100.00;102414.16;5094285;28;20490;-66
2021/12/13 00:27:18;;;;;;;29.30;16.25;;;;;;;9.18;100.00;102413.47;5094271;28;20036;-66
2021/12/13 00:30:09;;;;;;;25.45;14.35;;;;;;;9.16;100.00;102410.09;5094129;28;20046;-66
2021/12/13 00:33:13;;;;;;;25.88;13.38;;;;;;;9.18;100.00;102429.44;5094278;28;20043;-66
2021/12/13 00:35:46;;;;;;;26.20;14.32;;;;;;;9.17;100.00;102432.25;5081343;28;20055;-66
2021/12/13 00:38:14;;;;;;;26.70;15.43;;;;;;;9.17;100.00;102432.25;5093970;28;20024;-66
2021/12/13 00:40:47;;;;;;;26.00;14.95;;;;;;;9.15;100.00;102431.56;5094038;28;20028;-67
2021/12/13 00:43:51;;;;;;;35.97;14.85;;;;;;;9.15;100.00;102428.91;5093923;28;20028;-66
2021/12/13 00:46:18;;;;;;;27.63;11.98;;;;;;;9.13;100.00;102434.34;5071163;28;20032;-67
2021/12/13 00:48:49;;;;;;;26.63;14.63;;;;;;;9.11;100.00;102438.97;5089895;28;20036;-66
2021/12/13 00:51:20;;;;;;;26.48;13.45;;;;;;;9.09;100.00;102433.00;5092459;28;20024;-66
2021/12/13 00:53:48;;;;;;;26.08;13.18;;;;;;;9.10;100.00;102437.31;5093688;28;20028;-66
2021/12/13 00:56:51;;;;;;;25.70;13.85;;;;;;;9.09;100.00;102435.66;5093670;28;20119;-66
2021/12/13 00:59:32;;;;;;;24.23;12.07;;;;;;;9.07;100.00;102434.97;5093632;28;20103;-66
2021/12/13 01:02:12;;;;;;;21.35;13.05;;;;;;;9.07;100.00;102439.44;5093578;28;20424;-66
2021/12/13 01:05:03;;;;;;;24.08;11.35;;;;;;;9.06;100.00;102446.56;5093495;28;20054;-66
2021/12/13 01:07:47;;;;;;;27.42;13.95;;;;;;;9.05;100.00;102439.59;5093414;28;20020;-66
2021/12/13 01:10:37;;;;;;;25.35;13.20;;;;;;;9.04;100.00;102442.38;5093365;28;20107;-66
2021/12/13 01:13:13;;;;;;;23.38;11.50;;;;;;;8.98;100.00;102435.84;5092179;28;20383;-66
2021/12/13 01:15:55;;;;;;;24.95;11.52;;;;;;;8.99;100.00;102446.34;5093329;28;20016;-66
2021/12/13 01:18:29;;;;;;;;;;;;;;;8.99;100.00;102456.97;5093768;28;20054;-66
2021/12/13 01:21:14;;;;;;;23.05;11.35;;;;;;;8.94;100.00;102445.94;5091496;28;19912;-66
2021/12/13 01:23:50;;;;;;;23.10;10.88;;;;;;;8.97;100.00;102456.28;5093270;28;20027;-66
2021/12/13 01:26:35;;;;;;;23.90;13.07;;;;;;;8.96;100.00;102459.09;5093302;28;20024;-66
2021/12/13 01:29:10;;;;;;;24.45;11.57;;;;;;;8.93;100.00;102444.28;5093226;28;20024;-66
2021/12/13 01:31:44;;;;;;;21.83;11.48;;;;;;;8.89;100.00;102447.38;5093223;28;20478;-66
2021/12/13 01:34:11;;;;;;;27.30;13.77;;;;;;;8.93;100.00;102459.38;5092820;28;20441;-66
2021/12/13 01:36:48;;;;;;;23.40;11.52;;;;;;;8.92;100.00;102457.72;5093066;28;20386;-66
2021/12/13 01:39:23;;;;;;;23.42;11.60;;;;;;;8.91;100.00;102456.06;5092995;28;20087;-66
2021/12/13 01:41:53;;;;;;;23.88;11.82;;;;;;;8.90;100.00;102471.16;5093026;28;20028;-66
2021/12/13 01:44:26;;;;;;;25.13;11.70;;;;;;;8.89;100.00;102464.16;5093032;28;20017;-66
2021/12/13 01:46:56;;;;;;;25.83;13.23;;;;;;;8.89;100.00;102471.31;5092967;28;20403;-66
2021/12/13 01:49:29;;;;;;;25.85;12.60;;;;;;;8.86;100.00;102464.47;5093012;28;20485;-66
2021/12/13 01:51:57;;;;;;;24.08;11.52;;;;;;;8.88;100.00;102475.81;5092961;28;20053;-65
2021/12/13 01:54:22;;;;;;;23.58;12.13;;;;;;;8.87;100.00;102473.28;5092837;28;20012;-66
2021/12/13 01:57:09;;;;;;;23.52;12.77;;;;;;;8.88;100.00;102474.94;5092889;28;20483;-66
2021/12/13 01:59:44;;;;;;;23.88;10.18;;;;;;;8.85;100.00;102464.59;5092954;28;20028;-66
2021/12/13 02:02:19;;;;;;;27.60;12.57;;;;;;;8.85;100.00;102467.25;5092813;28;20036;-66
2021/12/13 02:04:53;;;;;;;23.35;11.45;;;;;;;8.84;100.00;102473.56;5092837;28;20094;-66
2021/12/13 02:07:18;;;;;;;26.13;12.63;;;;;;;8.82;100.00;102471.03;5092821;28;20055;-66
2021/12/13 02:09:45;;;;;;;28.05;14.20;;;;;;;8.83;100.00;102477.19;5092740;28;20471;-66
2021/12/13 02:12:15;;;;;;;26.30;12.32;;;;;;;8.80;100.00;102475.66;5092708;28;20036;-66
2021/12/13 02:16:55;;;;;;;25.42;12.82;;;;;;;8.79;100.00;102471.34;5092709;28;20024;-66
2021/12/13 02:17:35;;;;;;;25.60;12.20;;;;;;;8.79;100.00;102476.66;5092630;28;20044;-66
2021/12/13 02:20:08;;;;;;;27.85;13.82;;;;;;;8.77;100.00;102471.47;5091278;28;20020;-66
2021/12/13 02:22:45;;;;;;;25.95;13.57;;;;;;;8.77;100.00;102474.13;5092645;28;20054;-66
2021/12/13 02:25:23;;;;;;;25.27;12.55;;;;;;;8.76;100.00;102474.28;5092970;28;20016;-66
2021/12/13 02:28:03;;;;;;;27.75;12.88;;;;;;;8.76;100.00;102472.47;5092641;28;20028;-66
2021/12/13 02:30:37;;;;;;;24.73;12.38;;;;;;;8.74;100.00;102473.59;5092560;28;20379;-66
2021/12/13 02:33:06;;;;;;;30.50;15.32;;;;;;;8.74;100.00;102474.44;5094446;28;20103;-66
2021/12/13 02:35:35;;;;;;;29.08;14.98;;;;;;;8.72;100.00;102476.41;5096162;28;20048;-66
2021/12/13 02:38:04;;;;;;;27.27;13.68;;;;;;;8.71;100.00;102474.72;5096337;28;20024;-66
2021/12/13 02:40:29;;;;;;;27.27;13.77;;;;;;;8.70;100.00;102465.06;5096237;28;20034;-66
2021/12/13 02:42:55;;;;;;;28.00;13.13;;;;;;;8.67;100.00;102468.03;5096160;28;20111;-66
2021/12/13 02:45:29;;;;;;;26.10;15.13;;;;;;;8.70;100.00;102472.22;5096244;28;20028;-66
2021/12/13 02:48:18;;;;;;;27.17;14.02;;;;;;;8.69;100.00;102471.34;5096219;28;20035;-66
2021/12/13 02:50:55;;;;;;;25.42;13.02;;;;;;;8.66;100.00;102465.50;5096076;28;20532;-66
2021/12/13 02:53:44;;;;;;;28.20;13.45;;;;;;;8.67;100.00;102473.34;5094689;28;20035;-66
2021/12/13 02:56:13;;;;;;;28.70;13.75;;;;;;;8.67;100.00;102477.81;5094766;28;20391;-68
2021/12/13 02:58:40;;;;;;;28.30;14.50;;;;;;;8.66;100.00;102461.00;5095988;28;20102;-65
2021/12/13 03:01:27;;;;;;;27.88;14.10;;;;;;;8.62;100.00;102464.97;5095887;28;20032;-66
2021/12/13 03:03:55;;;;;;;24.38;13.15;;;;;;;8.64;100.00;102473.59;5096091;28;20082;-66
2021/12/13 03:06:28;;;;;;;29.98;13.43;;;;;;;8.65;100.00;102474.47;5095736;28;20020;-66
2021/12/13 03:09:00;;;;;;;27.33;13.30;;;;;;;8.66;100.00;102468.16;5095734;28;20368;-66
2021/12/13 03:11:30;;;;;;;29.92;14.85;;;;;;;8.63;100.00;102466.63;5095718;28;20461;-65
2021/12/13 03:14:19;;;;;;;26.75;14.38;;;;;;;8.64;100.00;102470.13;5095574;28;20165;-66
2021/12/13 03:16:50;;;;;;;27.73;14.25;;;;;;;8.63;100.00;102477.25;5095211;28;20044;-65
2021/12/13 03:19:36;;;;;;;25.98;14.20;;;;;;;8.63;100.00;102468.44;5095829;28;20375;-66
2021/12/13 03:22:26;;;;;;;28.55;14.10;;;;;;;8.61;100.00;102473.06;5084030;28;20391;-66
2021/12/13 03:25:09;;;;;;;25.05;11.65;;;;;;;8.61;100.00;102481.06;5095436;28;20387;-66
2021/12/13 03:28:05;;;;;;;27.40;13.02;;;;;;;8.60;100.00;102476.72;5095486;28;20059;-66
2021/12/13 03:30:46;;;;;;;30.55;13.55;;;;;;;8.56;100.00;102487.63;5095366;28;20174;-66
2021/12/13 03:33:14;;;;;;;25.90;13.40;;;;;;;8.56;100.00;102487.63;5095392;28;20052;-66
2021/12/13 03:35:51;;;;;;;29.42;15.05;;;;;;;8.52;100.00;102470.28;5095057;28;20383;-66
2021/12/13 03:38:25;;;;;;;26.95;13.90;;;;;;;8.55;100.00;102485.13;5095269;28;20020;-66
2021/12/13 03:40:51;;;;;;;26.15;13.05;;;;;;;8.54;100.00;102486.09;5095202;28;20077;-66
2021/12/13 03:43:24;;;;;;;30.95;13.10;;;;;;;8.53;100.00;102481.75;5093419;28;20038;-66
2021/12/13 03:45:55;;;;;;;28.70;15.05;;;;;;;8.53;100.00;102484.41;5095007;28;20066;-66
2021/12/13 03:48:24;;;;;;;29.70;14.90;;;;;;;8.51;100.00;102479.25;5095082;28;20016;-66
2021/12/13 03:50:53;;;;;;;27.27;13.60;;;;;;;8.51;100.00;102481.94;5093775;28;20066;-66
2021/12/13 03:53:23;;;;;;;27.92;12.98;;;;;;;8.51;100.00;102483.72;5094838;28;20031;-66
2021/12/13 03:55:54;;;;;;;27.95;13.80;;;;;;;8.50;100.00;102476.72;5094741;28;20032;-67
2021/12/13 03:58:22;;;;;;;28.05;13.77;;;;;;;8.49;100.00;102486.53;5094880;28;20024;-67
2021/12/13 04:00:54;;;;;;;26.45;14.35;;;;;;;8.50;100.00;102488.19;5094785;28;20028;-67
2021/12/13 04:03:20;;;;;;;27.63;14.27;;;;;;;8.49;100.00;102491.84;5094584;28;20043;-66
2021/12/13 04:05:47;;;;;;;28.08;13.32;;;;;;;8.49;100.00;102491.03;5094595;28;20035;-67
2021/12/13 04:08:16;;;;;;;27.40;13.60;;;;;;;8.48;100.00;102484.84;5094609;28;20471;-66
2021/12/13 04:10:53;;;;;;;27.17;13.05;;;;;;;8.46;100.00;102483.31;5094538;28;20479;-66
2021/12/13 04:13:24;;;;;;;27.15;12.27;;;;;;;8.48;100.00;102489.31;5094486;28;20020;-67
2021/12/13 04:15:57;;;;;;;28.53;12.53;;;;;;;8.49;100.00;102483.88;5094579;28;20035;-66
2021/12/13 04:21:24;;;;;;;28.33;13.45;;;;;;;8.48;100.00;102484.00;5094600;28;20032;-67
2021/12/13 04:23:56;;;;;;;28.83;12.50;;;;;;;8.47;100.00;102485.84;5094414;28;20077;-67
2021/12/13 04:26:22;;;;;;;;;;;;;;;8.48;100.00;102492.81;5094739;28;20055;-67
2021/12/13 04:28:51;;;;;;;26.63;12.82;;;;;;;8.44;100.00;102487.94;5092978;28;20376;-66
2021/12/13 04:31:22;;;;;;;30.98;12.73;;;;;;;8.44;100.00;102493.28;5094197;28;20024;-66
2021/12/13 04:33:52;;;;;;;31.50;15.93;;;;;;;8.45;100.00;102489.63;5094020;28;20028;-66
2021/12/13 04:36:22;;;;;;;29.52;14.13;;;;;;;8.40;100.00;102490.03;5093974;28;20051;-67
2021/12/13 04:38:58;;;;;;;29.88;15.10;;;;;;;8.42;100.00;102488.09;5094080;28;20032;-66
2021/12/13 04:41:46;;;;;;;29.20;12.88;;;;;;;8.44;100.00;102490.59;5094075;28;20031;-66
2021/12/13 04:44:20;;;;;;;27.98;12.20;;;;;;;8.41;100.00;102486.41;5090674;28;20078;-67
2021/12/13 04:46:54;;;;;;;28.42;13.57;;;;;;;8.41;100.00;102481.09;5093884;28;20020;-66
2021/12/13 04:49:22;;;;;;;26.77;12.38;;;;;;;8.41;100.00;102489.06;5093865;28;20383;-67
2021/12/13 04:51:55;;;;;;;26.77;12.77;;;;;;;8.43;100.00;102496.88;5094360;28;20031;-67
2021/12/13 04:54:24;;;;;;;25.52;13.10;;;;;;;8.42;100.00;102493.41;5093251;28;20542;-67
2021/12/13 04:56:50;;;;;;;26.95;12.85;;;;;;;8.44;100.00;102493.28;5093312;28;20093;-66
2021/12/13 04:59:17;;;;;;;28.92;15.05;;;;;;;8.42;100.00;102492.56;5093713;28;20028;-67
2021/12/13 05:01:50;;;;;;;30.77;15.40;;;;;;;8.44;100.00;102490.59;5092405;28;20356;-66
2021/12/13 05:04:16;;;;;;;26.75;12.90;;;;;;;8.43;100.00;102491.56;5093565;28;20028;-66
2021/12/13 05:06:42;;;;;;;22.50;11.25;;;;;;;8.41;100.00;102489.06;5093492;28;20035;-66
2021/12/13 05:09:11;;;;;;;24.80;11.82;;;;;;;8.40;100.00;102482.06;5093526;28;20440;-67
2021/12/13 05:11:47;;;;;;;28.33;11.98;;;;;;;8.41;100.00;102485.53;5093370;28;20023;-67
2021/12/13 05:14:13;;;;;;;26.55;11.35;;;;;;;8.40;100.00;102494.53;5093353;28;20052;-66
2021/12/13 05:16:41;;;;;;;27.02;12.35;;;;;;;8.39;100.00;102495.47;5093346;28;20111;-66
2021/12/13 05:19:09;;;;;;;26.10;13.68;;;;;;;8.38;100.00;102497.28;5093301;28;20077;-66
2021/12/13 05:21:57;;;;;;;26.60;11.85;;;;;;;8.39;100.00;102495.47;5093249;28;20119;-66
2021/12/13 05:24:27;;;;;;;23.02;12.07;;;;;;;8.37;100.00;102500.09;5093278;28;20024;-66
2021/12/13 05:27:04;;;;;;;26.17;12.40;;;;;;;8.35;100.00;102487.75;5093234;28;20112;-66
2021/12/13 05:29:42;;;;;;;26.13;14.63;;;;;;;8.37;100.00;102492.13;5093271;28;20020;-67
2021/12/13 05:32:24;;;;;;;25.25;13.20;;;;;;;8.34;100.00;102491.41;5093162;28;20039;-66
2021/12/13 05:34:51;;;;;;;26.07;12.73;;;;;;;8.37;100.00;102492.94;5092927;28;20040;-66
2021/12/13 05:37:18;;;;;;;24.98;11.40;;;;;;;8.37;100.00;102497.44;5093048;28;20270;-66
2021/12/13 05:40:03;;;;;;;20.05;10.82;;;;;;;8.35;100.00;102506.38;5093088;28;20028;-67
2021/12/13 05:42:41;;;;;;;29.58;12.55;;;;;;;8.38;100.00;102504.41;5092980;28;20059;-67
2021/12/13 05:45:10;;;;;;;22.95;11.30;;;;;;;8.37;100.00;102500.94;5093000;28;20103;-66
2021/12/13 05:47:36;;;;;;;26.45;11.20;;;;;;;8.35;100.00;102500.22;5093044;28;20081;-67
2021/12/13 05:50:05;;;;;;;24.95;11.32;;;;;;;8.37;100.00;102500.09;5091838;28;20058;-67
2021/12/13 05:52:35;;;;;;;24.20;11.13;;;;;;;8.37;100.00;102502.75;5091603;28;20020;-67
2021/12/13 05:55:06;;;;;;;27.17;12.20;;;;;;;8.37;100.00;102500.09;5092874;28;20027;-67
2021/12/13 05:57:35;;;;;;;21.63;9.38;;;;;;;8.35;100.00;102489.59;5092896;28;20028;-66
2021/12/13 06:00:18;;;;;;;24.23;11.77;;;;;;;8.35;100.00;102503.72;5092902;28;20094;-66
2021/12/13 06:03:09;;;;;;;29.20;11.68;;;;;;;8.34;100.00;102507.38;5092672;28;20101;-67
2021/12/13 06:06:13;;;;;;;25.75;11.10;;;;;;;8.37;100.00;102506.25;5092827;28;20028;-66
2021/12/13 06:08:44;;;;;;;21.85;9.93;;;;;;;8.35;100.00;102509.03;5096924;28;20016;-67
2021/12/13 06:11:21;;;;;;;23.83;10.60;;;;;;;8.36;100.00;102512.56;5096850;28;20451;-66
2021/12/13 06:13:46;;;;;;;23.33;10.77;;;;;;;8.34;100.00;102502.03;5096785;28;20107;-67
2021/12/13 06:16:24;;;;;;;25.00;10.73;;;;;;;8.35;100.00;102501.06;5096817;28;20112;-66
2021/12/13 06:19:28;;;;;;;22.45;10.13;;;;;;;8.34;100.00;102514.50;5096724;28;20273;-67
2021/12/13 06:22:02;;;;;;;19.88;10.50;;;;;;;8.32;100.00;102505.81;5097094;28;20123;-66
2021/12/13 06:24:33;;;;;;;24.35;11.60;;;;;;;8.33;100.00;102510.16;5096586;28;20050;-66
2021/12/13 06:27:07;;;;;;;22.60;11.05;;;;;;;8.27;100.00;102502.75;5096613;28;20525;-66
2021/12/13 06:30:00;;;;;;;20.67;10.02;;;;;;;8.32;100.00;102511.97;5096597;28;20032;-66
2021/12/13 06:32:34;;;;;;;24.73;11.73;;;;;;;8.31;100.00;102520.94;5095195;28;20028;-67
2021/12/13 06:35:28;;;;;;;21.70;9.93;;;;;;;8.32;100.00;102527.91;5096213;28;20123;-66
2021/12/13 06:37:54;;;;;;;25.10;10.85;;;;;;;8.30;100.00;102523.72;5096380;28;20099;-67
2021/12/13 06:40:27;;;;;;;22.40;10.68;;;;;;;8.25;100.00;102521.50;5096313;28;20103;-67
2021/12/13 06:43:01;;;;;;;21.90;8.93;;;;;;;8.26;100.00;102528.50;5096552;28;20023;-66
2021/12/13 06:45:31;;;;;;;22.40;9.75;;;;;;;8.28;100.00;102536.34;5096225;28;20085;-66
2021/12/13 06:47:59;;;;;;;25.77;11.30;;;;;;;8.26;100.00;102528.50;5096174;28;20486;-66
2021/12/13 06:50:31;;;;;;;24.00;9.80;;;;;;;8.26;100.00;102528.50;5096147;28;20024;-67
2021/12/13 06:53:14;;;;;;;20.17;9.63;;;;;;;8.26;100.00;102528.50;5096010;28;20016;-66
2021/12/13 06:55:40;;;;;;;23.15;10.13;;;;;;;8.25;100.00;102534.81;5095967;28;20031;-66
2021/12/13 06:58:27;;;;;;;20.73;10.23;;;;;;;8.25;100.00;102532.16;5096022;28;20055;-66
2021/12/13 07:00:57;;;;;;;22.27;10.40;;;;;;;8.22;100.00;102532.41;5095970;28;20056;-66
2021/12/13 07:03:32;;;;;;;23.42;11.90;;;;;;;8.23;100.00;102536.75;5095792;28;20024;-66
2021/12/13 07:06:00;;;;;;;20.67;10.40;;;;;;;8.18;100.00;102533.66;5095785;28;20459;-66
2021/12/13 07:08:35;;;;;;;24.95;10.77;;;;;;;8.21;100.00;102541.38;5095769;28;20027;-66
2021/12/13 07:11:12;;;;;;;23.65;9.43;;;;;;;8.21;100.00;102544.03;5095816;28;20032;-66
2021/12/13 07:13:42;;;;;;;22.38;10.38;;;;;;;8.21;100.00;102541.38;5094473;28;20058;-66
2021/12/13 07:16:15;;;;;;;22.02;10.50;;;;;;;8.22;100.00;102548.34;5095686;28;20028;-66
2021/12/13 07:18:52;;;;;;;23.95;9.65;;;;;;;8.16;100.00;102548.91;5094815;28;20032;-66
2021/12/13 07:21:39;;;;;;;20.45;9.15;;;;;;;8.20;100.00;102553.00;5095572;28;20030;-66
2021/12/13 07:24:09;;;;;;;22.23;9.00;;;;;;;8.20;100.00;102553.00;5095384;28;20032;-66
2021/12/13 07:26:49;;;;;;;21.30;9.65;;;;;;;8.17;100.00;102550.59;5095522;28;20461;-66
2021/12/13 07:29:22;;;;;;;20.80;9.30;;;;;;;8.19;100.00;102553.94;5095342;28;20034;-66
2021/12/13 07:32:09;;;;;;;24.20;11.07;;;;;;;8.20;100.00;102553.00;5091506;28;20485;-67
2021/12/13 07:35:02;;;;;;;22.55;10.23;;;;;;;8.18;100.00;102554.09;5089607;28;20561;-66
2021/12/13 07:37:39;;;;;;;24.30;9.13;;;;;;;8.19;100.00;102563.75;5091375;28;20028;-66
2021/12/13 07:40:13;;;;;;;20.38;9.15;;;;;;;8.19;100.00;102559.25;5091348;28;20513;-66
2021/12/13 07:42:39;;;;;;;20.13;8.50;;;;;;;8.19;100.00;102567.22;5091464;28;20475;-66
2021/12/13 07:45:22;;;;;;;21.33;8.82;;;;;;;8.18;100.00;102556.75;5091190;28;20035;-66
2021/12/13 07:47:50;;;;;;;23.55;10.05;;;;;;;8.18;100.00;102556.75;5091128;28;20024;-67
2021/12/13 07:50:19;;;;;;;19.88;8.05;;;;;;;8.21;100.00;102561.78;5091350;28;20090;-66
2021/12/13 07:52:53;;;;;;;18.50;8.15;;;;;;;8.22;100.00;102566.94;5071689;28;20036;-67
2021/12/13 07:55:25;;;;;;;20.17;8.93;;;;;;;8.22;100.00;102582.06;5071568;28;20431;-66
2021/12/13 07:57:51;;;;;;;18.55;8.23;;;;;;;8.23;100.00;102584.59;5071702;28;20044;-67
2021/12/13 08:00:39;;;;;;;20.05;9.40;;;;;;;8.24;100.00;102586.25;5071508;28;20028;-66
2021/12/13 08:03:12;;;;;;;21.17;8.88;;;;;;;8.25;100.00;102592.41;5071451;28;20028;-66
2021/12/13 08:05:42;;;;;;;19.13;8.85;;;;;;;8.26;100.00;102589.63;5071416;28;20035;-66
2021/12/13 08:08:19;;;;;;;17.33;7.70;;;;;;;8.27;100.00;102591.28;5071318;28;20055;-66
2021/12/13 08:10:46;;;;;;;20.23;8.80;;;;;;;8.26;100.00;102579.00;5071216;28;20020;-66
2021/12/13 08:13:25;;;;;;;20.60;8.32;;;;;;;8.29;100.00;102581.38;5069856;28;20037;-66
2021/12/13 08:16:01;;;;;;;19.13;8.75;;;;;;;8.31;100.00;102590.06;5090490;28;20043;-66
2021/12/13 08:18:32;;;;;;;14.82;6.25;;;;;;;8.32;100.00;102585.56;5090291;28;20024;-66
2021/12/13 08:21:02;;;;;;;17.50;7.45;;;;;;;8.31;100.00;102582.09;5090530;28;20024;-66
2021/12/13 08:23:35;;;;;;;19.95;9.85;;;;;;;8.35;100.00;102585.28;5090498;28;20125;-66
2021/12/13 08:26:03;;;;;;;18.83;7.35;;;;;;;8.36;100.00;102587.00;5090327;28;20106;-66
2021/12/13 08:28:50;;;;;;;19.67;8.48;;;;;;;8.38;100.00;102584.19;5090230;28;20063;-66
2021/12/13 08:31:25;;;;;;;18.50;6.97;;;;;;;8.37;100.00;102585.16;5090332;28;20032;-66
2021/12/13 08:34:01;;;;;;;19.50;8.50;;;;;;;8.38;100.00;102584.19;5094176;28;20035;-66
2021/12/13 08:36:31;;;;;;;15.90;8.10;;;;;;;8.35;100.00;102572.84;5093651;28;20052;-67
2021/12/13 08:39:09;;;;;;;16.42;7.15;;;;;;;8.35;100.00;102575.50;5093654;28;20468;-66
2021/12/13 08:41:48;;;;;;;18.27;7.28;;;;;;;8.40;100.00;102582.25;5093310;28;20031;-66
2021/12/13 08:44:21;;;;;;;18.05;8.27;;;;;;;8.39;100.00;102586.75;5089143;28;20383;-65
2021/12/13 08:46:55;;;;;;;21.02;9.13;;;;;;;8.40;100.00;102584.91;5088125;28;20020;-67
2021/12/13 08:49:29;;;;;;;16.98;8.25;;;;;;;8.40;100.00;102588.41;5088644;28;20020;-65
2021/12/13 08:52:01;;;;;;;16.33;6.85;;;;;;;8.39;100.00;102586.75;5089194;28;20039;-67
2021/12/13 08:54:40;;;;;;;19.05;6.43;;;;;;;8.37;100.00;102580.69;5090175;28;20079;-66
2021/12/13 08:57:12;;;;;;;16.27;7.32;;;;;;;8.38;100.00;102586.84;5093130;28;20486;-67
2021/12/13 08:59:49;;;;;;;14.32;7.13;;;;;;;8.37;100.00;102593.97;5093158;28;20665;-66
2021/12/13 09:02:14;;;;;;;17.05;7.93;;;;;;;8.36;100.00;102592.31;5093508;28;20114;-66
2021/12/13 09:04:52;;;;;;;16.20;7.97;;;;;;;8.35;100.00;102587.94;5093101;28;20012;-66
2021/12/13 09:07:20;;;;;;;18.88;7.28;;;;;;;8.37;100.00;102593.13;5093005;28;20106;-66
2021/12/13 09:09:48;;;;;;;18.02;7.18;;;;;;;8.35;100.00;102591.44;5093400;28;20062;-66
2021/12/13 09:12:24;;;;;;;17.73;7.38;;;;;;;8.38;100.00;102592.16;5092282;28;20443;-66
2021/12/13 09:14:53;;;;;;;15.70;6.25;;;;;;;8.36;100.00;102589.66;5093457;28;20028;-66
2021/12/13 09:17:40;;;;;;;14.85;6.35;;;;;;;8.39;100.00;102597.38;5093476;28;20118;-66
2021/12/13 09:20:15;;;;;;;16.60;6.70;;;;;;;8.40;100.00;102598.22;5093244;28;20020;-66
2021/12/13 09:23:06;;;;;;;15.45;6.90;;;;;;;8.41;100.00;102597.22;5091500;28;20024;-66
2021/12/13 09:25:43;;;;;;;18.00;7.13;;;;;;;8.43;100.00;102604.06;5090107;28;20605;-66
2021/12/13 09:28:18;;;;;;;15.65;6.50;;;;;;;8.45;100.00;102601.28;5093301;28;20494;-66
2021/12/13 09:30:44;;;;;;;16.38;5.72;;;;;;;8.47;100.00;102615.28;5093345;28;20493;-66
2021/12/13 09:33:28;;;;;;;17.02;7.13;;;;;;;8.46;100.00;102611.78;5093123;28;20032;-66
2021/12/13 09:35:59;;;;;;;14.35;5.70;;;;;;;8.47;100.00;102618.78;5092962;28;20044;-66
2021/12/13 09:38:37;;;;;;;15.07;7.18;;;;;;;8.45;100.00;102628.72;5093271;28;20024;-66
2021/12/13 09:41:02;;;;;;;14.55;6.15;;;;;;;8.48;100.00;102639.06;5092759;28;20089;-66
2021/12/13 09:43:49;;;;;;;17.25;6.60;;;;;;;8.47;100.00;102648.03;5093176;28;20463;-66
2021/12/13 09:46:36;;;;;;;11.40;4.80;;;;;;;8.47;100.00;102649.84;5093112;28;20085;-66
2021/12/13 09:49:08;;;;;;;15.90;5.53;;;;;;;8.44;100.00;102648.31;5093050;28;20020;-67
2021/12/13 09:51:59;;;;;;;11.57;5.13;;;;;;;8.48;100.00;102659.50;5093034;28;20425;-66
2021/12/13 09:54:30;;;;;;;11.18;5.38;;;;;;;8.46;100.00;102661.44;5092971;28;20089;-66
2021/12/13 09:56:59;;;;;;;12.00;5.53;;;;;;;8.48;100.00;102667.47;5093049;28;20023;-66
2021/12/13 09:59:35;;;;;;;10.48;5.13;;;;;;;8.49;100.00;102671.84;5092911;28;20032;-66
2021/12/13 10:02:04;;;;;;;12.27;5.40;;;;;;;8.50;100.00;102670.84;5092907;28;20024;-66
2021/12/13 10:04:40;;;;;;;13.73;5.60;;;;;;;8.50;100.00;102666.38;5092878;28;20016;-68
2021/12/13 10:07:21;;;;;;;12.07;6.63;;;;;;;8.54;100.00;102666.91;5091612;28;20032;-66
2021/12/13 10:10:05;;;;;;;13.30;6.22;;;;;;;8.56;100.00;102655.16;5092869;28;20055;-66
2021/12/13 10:12:44;;;;;;;15.25;5.10;;;;;;;8.59;100.00;102662.03;5092901;28;20024;-66
2021/12/13 10:15:23;;;;;;;14.65;6.15;;;;;;;8.61;100.00;102659.25;5092781;28;20038;-66
2021/12/13 10:17:52;;;;;;;13.13;6.05;;;;;;;8.62;100.00;102659.13;5092992;28;20052;-66
2021/12/13 10:20:23;;;;;;;9.77;5.47;;;;;;;8.63;100.00;102658.13;5091509;28;20045;-66
2021/12/13 10:22:50;;;;;;;10.80;4.63;;;;;;;8.64;100.00;102651.81;5092678;28;20042;-66
2021/12/13 10:25:26;;;;;;;11.10;4.93;;;;;;;8.65;100.00;102653.50;5092704;28;20031;-66
2021/12/13 10:27:52;;;;;;;11.02;4.47;;;;;;;8.66;100.00;102655.19;5091435;28;20430;-66
2021/12/13 10:30:26;;;;;;;11.98;5.72;;;;;;;8.64;100.00;102637.69;5092781;28;20073;-66
2021/12/13 10:32:53;;;;;;;11.18;5.68;;;;;;;8.68;100.00;102639.94;5092622;28;20179;-66
2021/12/13 10:35:31;;;;;;;12.25;4.80;;;;;;;8.66;100.00;102643.72;5092412;28;20044;-66
2021/12/13 10:38:04;;;;;;;11.20;5.40;;;;;;;8.66;100.00;102644.53;5092564;28;20367;-66
2021/12/13 10:40:42;;;;;;;10.23;4.75;;;;;;;8.67;100.00;102638.25;5092642;28;20430;-66
2021/12/13 10:43:12;;;;;;;13.00;5.45;;;;;;;8.69;100.00;102643.41;5092654;28;20024;-66
2021/12/13 10:45:47;;;;;;;8.95;4.38;;;;;;;8.70;100.00;102637.97;5091334;28;20016;-66
2021/12/13 10:48:16;;;;;;;8.43;4.13;;;;;;;8.71;100.00;102639.66;5092530;28;20024;-66
2021/12/13 10:50:46;;;;;;;9.60;4.75;;;;;;;8.73;100.00;102645.66;5092509;28;20028;-66
2021/12/13 10:53:17;;;;;;;13.13;5.13;;;;;;;8.74;100.00;102644.69;5093080;28;20085;-66
2021/12/13 10:55:48;;;;;;;10.32;4.50;;;;;;;8.74;100.00;102646.50;5096466;28;20070;-66
2021/12/13 10:58:17;;;;;;;9.75;4.10;;;;;;;8.77;100.00;102641.72;5096111;28;20019;-66
2021/12/13 11:00:48;;;;;;;10.20;4.63;;;;;;;8.77;100.00;102636.41;5095988;28;20031;-66
2021/12/13 11:03:18;;;;;;;9.20;4.10;;;;;;;8.79;99.90;102638.94;5096247;28;20031;-66
2021/12/13 11:05:46;;;;;;;7.57;3.80;;;;;;;8.80;100.00;102637.13;5095966;28;20044;-66
2021/12/13 11:08:15;;;;;;;8.82;3.60;;;;;;;8.80;99.43;102629.97;5095943;28;20442;-66
2021/12/13 11:10:48;;;;;;;12.30;5.00;;;;;;;8.82;99.00;102636.00;5095894;28;20035;-66
2021/12/13 11:13:16;;;;;;;9.93;4.50;;;;;;;8.81;99.32;102634.31;5095847;28;20445;-66
2021/12/13 11:15:45;;;;;;;7.70;4.35;;;;;;;8.83;99.29;102627.06;5095709;28;20111;-66
2021/12/13 11:18:14;;;;;;;9.93;4.82;;;;;;;8.84;99.26;102631.38;5095732;28;20055;-66
2021/12/13 11:20:44;;;;;;;7.43;3.80;;;;;;;8.84;99.05;102619.91;5095697;28;20024;-66
2021/12/13 11:23:17;;;;;;;9.07;4.38;;;;;;;8.85;99.14;102624.22;5095679;28;20073;-66
2021/12/13 11:25:55;;;;;;;8.43;4.43;;;;;;;8.81;98.87;102614.88;5095608;28;20058;-66
2021/12/13 11:28:21;;;;;;;9.23;4.35;;;;;;;8.85;98.75;102626.88;5095578;28;20027;-66
2021/12/13 11:30:49;;;;;;;8.85;3.97;;;;;;;8.85;98.95;102635.72;5095479;28;20032;-66
2021/12/13 11:33:35;;;;;;;9.57;4.05;;;;;;;8.86;98.66;102623.28;5095399;28;20039;-66
2021/12/13 11:36:07;;;;;;;12.07;4.10;;;;;;;8.87;98.61;102636.41;5095143;28;20047;-66
2021/12/13 11:38:50;;;;;;;;;;;;;;;8.90;99.23;102636.13;5095786;28;20103;-66
2021/12/13 11:41:58;;;;;;;8.35;3.85;;;;;;;8.90;98.75;102637.94;5095241;28;19947;-66
2021/12/13 11:44:41;;;;;;;9.80;3.80;;;;;;;8.88;98.52;102627.47;5095259;28;20428;-66
2021/12/13 11:47:33;;;;;;;7.22;4.10;;;;;;;8.89;98.56;102636.28;5092991;28;20379;-66
2021/12/13 11:50:18;;;;;;;;;;;;;;;8.93;99.50;102627.03;5090854;28;20068;-67
2021/12/13 11:53:18;;;;;;;9.32;4.88;;;;;;;8.91;98.63;102627.19;5090512;28;19923;-65